Salina Municipal Airport
KSLN : now visible

Airfield :











YOU CAN JOIN US ON...

 
LOGIN :

Register | Disclaimer

   EN    FR    IT 

 









Legend :    VFR   Marginal VFR   IFR   Intensive IFR   Very Intensive IFR
Visi :
Ceiling :
>= 8 km
>= 3000ft
5 to 8 km
1000 to 3000 ft
1500m to 5 km
500 to 1000 ft
800 to 1500m
200 to 500 ft
< 800m
< 200 ft
Symbols :   Thunderstorms  Fog  Heavy snow  Heavy precipitations  Wind > 20 kt






- Airport Elevation : 1288 ft
- IATA code : SLN


KSLN - Salina Municipal

CURRENT METAR :
  • 020544Z AUTO 17007KT 3SM BR CLR 01/00 A2992 RMK AO2 T00060000

EXPIRED METARs :
  • 020453Z 00000KT 4SM BR CLR 02/01 A2993 RMK AO2 SLP143 T00220011
  • 012053Z 18012KT 10SM OVC014 07/02 A2994 RMK AO2 SLP146 T00720022 56017
  • 020406Z 17008KT 5SM BR FEW010 03/02 A2993 RMK AO2 T00330017
  • 020253Z 18013G20KT 7SM OVC010 04/02 A2995 RMK AO2 SLP147 T00440022 53009
  • 020153Z 19012G22KT 5SM HZ OVC011 04/02 A2994 RMK AO2 SLP144 T00440017

TAF KSLN
Valid from the 02 at 06:00 until the 03 at 06:00 UTC


020520Z 0206/0306 17007KT 5SM BR SKC
TEMPO 0207/0211 2SM BR SCT005
FM021100 16007KT 3SM BR BKN010
FM021800 17014G20KT P6SM SCT012 BKN035
FM022100 17015G23KT P6SM SCT050
KZKC FIR / North America



MET'MAP, your aeronautical weather chart ! - Copyright ORBIFLY December 2007 - Disclaimer

ORBIFLY MET'MAP TEAM :

Programming & Development : Alexandra Zaïnal
Original concept : Baudouin d'Aumeries
Technical & hardware support : Manuel Goepfert
Assistance : Marc-Olivier Méhu




SOURCES & CREDITS :

   NOAA       Earth
Advisory